Latest Coastal Weather Observations for Darwin Airport

IDD60701

Issued at 5:21 pm CST Thursday 2 April 2015 (issued every 10 minutes, with the page automatically refreshed every 10 minutes)

About coastal observations | Map of coastal stations | Coastal observations for NT | Marine services | Other Formats
Station Details ID: 014015 Name: DARWIN AIRPORT Lat: -12.42 Lon: 130.89 Height: 30.4 m
Data from the previous 72 hours. | See also: Recent months at Darwin Airport
Date/Time
CST
Temp

°C
Wind Pressure Rain
since 9am
mm
Weather Cloud Vis
km
Sea
Height
m
Swell
Dir
 
Speed
knots
Gust
knots
hPa Trend Height
m
Period
s
Dir
02/05:00pm 31.7 N 8 11 1006.3 - 0.2 - Mostly clear 10 - - - -
02/04:30pm 32.0 NNW 8 10 1006.1 - 0.2 - Mostly clear 10 - - - -
02/04:00pm 32.0 NW 7 14 1006.3 - 0.2 - Mostly clear 10 - - - -
02/03:30pm 31.6 N 9 12 1006.5 - 0.2 - Mostly clear 10 - - - -
02/03:00pm 31.2 N 8 10 1006.6 F 0.2 Fine Mostly clear 30 - - - -
02/02:30pm 30.6 NNW 9 10 1007.4 - 0.2 - Mostly clear 10 - - - -
02/02:00pm 30.7 WNW 10 13 1008.1 - 0.2 - Partly cloudy 10 - - - -
02/01:30pm 30.9 NW 10 12 1008.5 - 0.2 - Partly cloudy 10 - - - -
02/01:00pm 31.0 WNW 7 10 1008.9 - 0.2 - Partly cloudy 10 - - - -
02/12:30pm 31.0 NNW 6 9 1009.1 - 0.2 - Partly cloudy 10 - - - -
02/12:00pm 31.6 WNW 7 9 1009.3 F 0.2 Fine Partly cloudy 30 - - - -
02/11:30am 32.3 W 6 8 1010.1 - 0.2 - Partly cloudy 10 - - - -
02/11:00am 31.2 E 5 9 1010.3 - 0.2 - Partly cloudy 10 - - - -
02/10:30am 30.7 NNW 1 3 1010.6 - 0.2 - Partly cloudy 10 - - - -
02/09:30am 30.2 NNW 4 6 1010.5 - 0.2 - Mostly clear 10 - - - -
02/09:00am 29.8 W 1 4 1010.5 R 8.2 Fine Mostly clear 10 - - - -
02/08:30am 29.0 ENE 1 4 1010.2 - 8.2 - Mostly clear 10 - - - -
02/08:00am 28.0 ENE 3 4 1009.7 - 8.2 - Mostly clear 10 - - - -
02/07:30am 26.2 ENE 4 5 1009.4 - 8.2 - Mostly clear 10 - - - -
02/07:00am 25.4 E 4 4 1009.1 - 8.2 - Mostly clear 10 - - - -
02/06:30am 25.1 NE 4 4 1008.9 - 8.2 - Mostly clear 10 - - - -
02/06:00am 25.2 CALM 0 4 1008.3 F 8.2 Fine Mostly clear 30 - - - -
02/05:30am 25.2 ENE 3 4 1008.5 - 8.2 - - 10 - - - -
02/05:00am 25.3 CALM 0 0 1008.5 - 8.2 - - 10 - - - -
02/04:30am 25.1 SSE 2 4 1008.5 - 8.2 - - 10 - - - -
02/04:00am 25.0 CALM 0 0 1008.4 - 8.2 - - 10 - - - -
02/03:30am 25.3 CALM 0 0 1008.6 - 8.2 - - 10 - - - -
02/03:00am 25.3 ENE 1 3 1008.5 F 8.2 Fine Mostly clear 30 - - - -
02/02:30am 25.4 E 3 4 1009.2 - 8.2 - - 10 - - - -
02/02:00am 25.5 E 4 5 1009.7 - 8.2 - - 10 - - - -
02/01:30am 25.5 E 4 5 1010.1 - 8.2 - - 10 - - - -
02/01:00am 25.6 ENE 3 4 1010.4 - 8.2 - - 10 - - - -
02/12:30am 25.6 E 3 4 1010.7 - 8.2 - - 10 - - - -
 
Date/Time
CST
Temp

°C
Wind Pressure Rain
since 9am
mm
Weather Cloud Vis
km
Sea
Height
m
Swell
Dir
 
Speed
knots
Gust
knots
hPa Trend Height
m
Period
s
Dir
01/11:30pm 26.0 SE 4 5 1010.8 - 8.2 - - 10 - - - -
01/11:00pm 26.4 SSE 3 5 1010.7 - 8.2 - Mostly clear 10 - - - -
01/10:30pm 26.1 SSW 5 7 1010.6 - 8.2 - - 10 - - - -
01/10:00pm 26.0 WSW 5 6 1010.6 - 8.2 - - 10 - - - -
01/09:30pm 25.7 W 4 5 1010.2 - 8.2 - Partly cloudy 10 - - - -
01/09:00pm 25.6 WNW 6 6 1010.1 R 8.2 Lightning Mostly cloudy 30 - - - -
01/08:30pm 25.0 W 6 7 1010.1 - 8.2 - Mostly clear 10 - - - -
01/08:00pm 24.7 W 7 8 1009.7 - 8.2 - Mostly clear 10 - - - -
01/07:30pm 24.6 WSW 14 19 1010.0 - 8.2 Rain Mostly clear 10 - - - -
01/07:15pm 24.0 N 9 10 1008.8 - 8.0 Thunderstorm Mostly clear 10 - - - -
01/07:00pm 23.8 ENE 16 18 1009.2 - 7.6 - Mostly clear 10 - - - -
01/06:48pm 24.4 E 16 24 1009.8 - 6.2 Thunderstorm Mostly clear 2 - - - -
01/06:43pm 24.4 E 15 24 1009.7 - 5.0 Showers Mostly clear 2 - - - -
01/06:36pm 27.9 NW 6 9 1009.7 - 2.4 Showers Partly cloudy 2 - - - -
01/06:30pm 30.0 NW 8 10 1008.9 - 0.0 Showers Partly cloudy 2 - - - -
01/06:00pm 30.5 WNW 9 11 1007.8 F 0.0 Distant precip. Partly cloudy 30 - - - -
01/05:30pm 31.3 NW 10 12 1008.0 - 0.0 - Mostly clear 10 - - - -
01/05:00pm 31.6 NW 10 13 1008.1 - 0.0 - Mostly clear 10 - - - -
01/04:30pm 31.7 NNW 10 13 1008.1 - 0.0 - Mostly clear 10 - - - -
01/04:00pm 32.0 NNW 10 14 1008.2 - 0.0 - Mostly clear 10 - - - -
01/03:30pm 32.7 NW 11 13 1008.4 - 0.0 - Mostly clear 10 - - - -
01/03:00pm 32.7 WNW 11 14 1008.4 F 0.0 Fine Partly cloudy 30 - - - -
01/02:30pm 32.7 NW 9 14 1008.9 - 0.0 - Mostly clear 10 - - - -
01/02:00pm 31.5 WNW 9 13 1009.4 - 0.0 - Partly cloudy 10 - - - -
01/01:30pm 31.9 WNW 9 12 1009.9 - 0.0 - Partly cloudy 10 - - - -
01/01:00pm 31.8 NW 8 13 1010.4 - 0.0 - Partly cloudy 10 - - - -
01/12:30pm 31.4 WNW 8 11 1010.8 - 0.0 - Partly cloudy 10 - - - -
01/12:00pm 31.8 WNW 8 12 1011.1 F 0.0 Fine Partly cloudy 30 - - - -
01/11:30am 31.0 W 6 8 1011.9 - 0.0 - Partly cloudy 10 - - - -
01/11:00am 30.9 W 6 8 1012.5 - 0.0 - Partly cloudy 10 - - - -
01/10:30am 31.6 WNW 4 6 1012.7 - 0.0 - Mostly clear 10 - - - -
01/10:00am 31.0 NW 4 6 1012.7 - 0.0 - Mostly clear 10 - - - -
01/09:30am 30.8 NNE 3 5 1012.7 - 0.0 - Mostly clear 10 - - - -
01/09:00am 29.9 WNW 4 5 1012.4 S 0.0 Fine Mostly clear 30 - - - -
01/08:30am 29.1 CALM 0 0 1012.6 - 0.0 - Mostly clear 10 - - - -
01/08:00am 27.8 CALM 0 0 1012.4 - 0.0 - Mostly clear 10 - - - -
01/07:30am 26.2 CALM 0 0 1012.1 - 0.0 - Mostly clear 10 - - - -
01/07:00am 25.3 SE 2 3 1011.8 - 0.0 - Mostly clear 10 - - - -
01/06:30am 25.4 SSE 4 4 1011.4 - 0.0 - Mostly clear 10 - - - -
01/06:00am 25.4 SSE 4 4 1010.9 R 0.0 Fine Partly cloudy 30 - - - -
01/05:30am 25.5 SE 4 5 1011.1 - 0.0 - Mostly clear 10 - - - -
01/05:00am 25.6 SSE 5 6 1011.0 - 0.0 - Mostly clear 10 - - - -
01/04:30am 25.8 SSE 6 7 1010.8 - 0.0 - Mostly clear 10 - - - -
01/04:00am 25.9 SSE 6 7 1010.8 - 0.0 - Mostly clear 10 - - - -
01/03:30am 26.0 SSE 6 6 1010.7 - 0.0 - Mostly clear 10 - - - -
01/03:00am 26.2 S 5 6 1010.5 R 0.0 Fine Mostly clear 30 - - - -
01/02:30am 25.9 SSE 4 5 1011.0 - 0.0 - - 10 - - - -
01/02:00am 26.4 SE 4 5 1011.1 - 0.0 - - 10 - - - -
01/01:30am 26.7 SSE 4 5 1011.4 - 0.0 - - 10 - - - -
01/01:00am 26.1 CALM 0 0 1011.6 - 0.0 - - 10 - - - -
01/12:30am 26.0 NE 3 5 1011.7 - 0.0 - - 10 - - - -
01/12:00am 26.2 CALM 0 0 1011.4 S 0.0 Fine Partly cloudy 30 - - - -
 
Date/Time
CST
Temp

°C
Wind Pressure Rain
since 9am
mm
Weather Cloud Vis
km
Sea
Height
m
Swell
Dir
 
Speed
knots
Gust
knots
hPa Trend Height
m
Period
s
Dir
31/11:30pm 26.4 N 4 4 1011.8 - 0.0 - - 10 - - - -
31/11:00pm 26.7 N 4 5 1012.1 - 0.0 - - 10 - - - -
31/10:30pm 27.6 N 3 4 1011.9 - 0.0 - - 10 - - - -
31/10:00pm 28.0 WNW 4 4 1011.9 - 0.0 - - 10 - - - -
31/09:30pm 28.2 NNE 5 6 1011.7 - 0.0 - Partly cloudy 10 - - - -
31/09:00pm 28.4 NNE 7 8 1011.2 F 0.0 Fine Mostly cloudy 30 - - - -
31/08:30pm 28.5 NNE 9 10 1011.1 - 0.0 - - 10 - - - -
31/08:00pm 28.7 NNE 7 10 1011.0 - 0.0 - - 10 - - - -
31/07:30pm 29.0 NNE 7 8 1010.7 - 0.0 - - 10 - - - -
31/07:00pm 29.6 NE 7 8 1010.5 - 0.0 - - 10 - - - -
31/06:30pm 30.5 NE 8 10 1010.2 - 0.0 - - 10 - - - -
31/06:00pm 31.5 NE 10 13 1009.7 R 0.0 Fine Mostly cloudy 30 - - - -
31/05:30pm 32.1 NE 10 13 1009.9 - 0.0 - - 10 - - - -
31/05:00pm 32.3 NE 11 15 1009.7 - 0.0 - - 10 - - - -
31/04:30pm 33.0 NE 10 14 1009.5 - 0.0 - - 10 - - - -
31/04:00pm 33.7 ESE 9 12 1009.4 - 0.0 - Mostly clear 10 - - - -
31/03:30pm 33.3 ENE 8 12 1009.4 - 0.0 - - 10 - - - -
31/03:00pm 33.6 NNE 7 14 1009.3 - 0.0 - Mostly clear 10 - - - -
31/02:30pm 33.5 NNW 5 9 1009.9 - 0.0 - Partly cloudy 10 - - - -
31/02:00pm 33.5 E 11 16 1010.4 - 0.0 - Mostly clear 10 - - - -
31/01:30pm 33.1 E 10 15 1010.7 - 0.0 - Mostly clear 10 - - - -
31/01:00pm 32.9 NE 8 11 1011.2 - 0.0 - Mostly clear 10 - - - -
31/12:30pm 33.0 E 7 10 1011.7 - 0.0 - Mostly clear 10 - - - -
31/12:00pm 32.1 ESE 8 14 1012.0 F 0.0 Fine Mostly cloudy 30 - - - -
31/11:30am 31.9 E 7 12 1012.7 - 0.0 - Mostly clear 10 - - - -
31/11:00am 31.7 E 8 11 1013.0 - 0.0 - Mostly clear 10 - - - -
31/10:30am 30.5 E 7 10 1013.2 - 0.0 - Mostly clear 10 - - - -
31/10:00am 30.2 E 9 11 1013.4 - 0.0 - Mostly clear 10 - - - -
31/09:30am 29.9 E 9 12 1013.5 - 0.0 - - 10 - - - -
31/09:00am 29.0 ESE 7 9 1013.3 F 0.0 Fine Mostly cloudy 30 - - - -
31/08:30am 28.3 SE 6 6 1013.5 - 0.0 - Mostly clear 10 - - - -
31/08:00am 27.1 SE 6 7 1013.3 - 0.0 - Mostly clear 10 - - - -
31/07:30am 26.1 SE 5 6 1012.9 - 0.0 - Mostly clear 10 - - - -
31/07:00am 25.3 SE 6 7 1012.6 - 0.0 - Mostly clear 10 - - - -
31/06:30am 25.3 SE 6 6 1012.4 - 0.0 - Mostly clear 10 - - - -
31/06:00am 25.6 SSE 7 8 1011.8 R 0.0 Fine Mostly clear 30 - - - -
31/05:30am 26.1 SSE 6 7 1011.7 - 0.0 - Mostly clear 10 - - - -
31/05:00am 26.1 SSE 5 6 1011.4 - 0.0 - Mostly clear 10 - - - -
31/04:30am 26.1 S 6 7 1011.1 - 0.0 - Mostly clear 10 - - - -
31/04:00am 25.8 SSE 6 7 1011.1 - 0.0 - Mostly clear 10 - - - -
31/03:30am 25.9 SE 5 5 1011.1 - 0.0 - Mostly clear 10 - - - -
31/03:00am 26.3 E 5 6 1011.0 F 0.0 Fine Mostly clear 30 - - - -
31/02:30am 25.8 E 5 5 1011.5 - 0.0 - Mostly clear 10 - - - -
31/02:00am 25.7 ENE 5 6 1011.9 - 0.0 - Mostly clear 10 - - - -
31/01:30am 25.6 ENE 5 6 1012.2 - 0.0 - Mostly clear 10 - - - -
31/01:00am 25.7 ENE 5 6 1012.4 - 0.0 - Mostly clear 10 - - - -
31/12:30am 25.7 NE 6 7 1012.6 - 0.0 - Mostly clear 10 - - - -
31/12:00am 26.1 NE 6 7 1012.4 F 0.0 Fine Mostly clear 30 - - - -
 
Date/Time
CST
Temp

°C
Wind Pressure Rain
since 9am
mm
Weather Cloud Vis
km
Sea
Height
m
Swell
Dir
 
Speed
knots
Gust
knots
hPa Trend Height
m
Period
s
Dir
30/11:30pm 26.3 NNE 7 8 1012.9 - 0.0 - Mostly clear 10 - - - -
30/11:00pm 25.9 NE 6 7 1012.9 - 0.0 - Mostly clear 10 - - - -
30/10:30pm 26.2 ENE 4 5 1013.0 - 0.0 - Mostly clear 10 - - - -
30/10:00pm 26.2 ENE 5 6 1012.8 - 0.0 - Mostly clear 10 - - - -
30/09:30pm 26.7 NE 6 7 1012.7 - 0.0 - Mostly clear 10 - - - -
30/09:00pm 27.0 NNE 7 9 1012.1 F 0.0 Fine Mostly clear 30 - - - -
30/08:30pm 27.4 NE 7 8 1012.2 - 0.0 - Mostly clear 10 - - - -
30/08:00pm 27.9 NE 6 7 1011.9 - 0.0 - Mostly clear 10 - - - -
30/07:30pm 28.4 NE 7 8 1011.6 - 0.0 - Mostly clear 10 - - - -
30/07:00pm 29.4 NE 8 10 1011.3 - 0.0 - Mostly clear 10 - - - -
30/06:30pm 30.5 ENE 8 10 1011.1 - 0.0 - Mostly clear 10 - - - -
30/06:00pm 31.3 NE 9 13 1010.5 R 0.0 Fine Mostly clear 30 - - - -
30/05:30pm 31.7 ENE 11 14 1010.7 - 0.0 - Mostly clear 10 - - - -

Other Formats:

Comma delimited format used in spreadsheet applications
http://www.bom.gov.au/fwo/IDD60701/IDD60701.94120.axf

JavaScript Object Notation format (JSON) in row-major order
http://www.bom.gov.au/fwo/IDD60701/IDD60701.94120.json